Time;durP1;ratioP1;P1;durP2;ratioP2;P2;SDS_P1;SDS_P2;PMS_P1;PMS_P2;Temp;Humidity;BMP_temperature;BMP_pressure;BME280_temperature;BME280_humidity;BME280_pressure;Samples;Min_cycle;Max_cycle;Signal;HPM_P1;HPM_P2
2024/01/24 00:01:10;;;;;;;;;;;;;;;;;;5096311;28;19934;-68
2024/01/24 00:03:36;;;;;;;;;;;;;;;;;;5095769;28;19968;-67
2024/01/24 00:06:02;;;;;;;;;;;;;;;;;;5095547;28;19912;-67
2024/01/24 00:08:28;;;;;;;;;;;;;;;;;;5095936;28;20284;-67
2024/01/24 00:10:54;;;;;;;;;;;;;;;;;;5095848;28;19908;-68
2024/01/24 00:13:20;;;;;;;;;;;;;;;;;;5095473;28;19912;-67
2024/01/24 00:15:46;;;;;;;;;;;;;;;;;;5095813;28;19909;-68
2024/01/24 00:18:12;;;;;;;;;;;;;;;;;;5095763;28;20332;-68
2024/01/24 00:20:38;;;;;;;;;;;;;;;;;;5095289;28;19916;-68
2024/01/24 00:23:04;;;;;;;;;;;;;;;;;;5095592;28;19916;-68
2024/01/24 00:25:30;;;;;;;;;;;;;;;;;;5096193;28;19909;-68
2024/01/24 00:27:56;;;;;;;;;;;;;;;;;;5095136;28;19951;-68
2024/01/24 00:30:22;;;;;;;;;;;;;;;;;;5095472;28;19919;-68
2024/01/24 00:32:48;;;;;;;;;;;;;;;;;;5095055;28;20287;-68
2024/01/24 00:35:15;;;;;;;;;;;;;;;;;;5095563;28;19912;-68
2024/01/24 00:37:41;;;;;;;;;;;;;;;;;;5095561;28;19908;-68
2024/01/24 00:40:07;;;;;;;;;;;;;;;;;;5094936;28;19915;-68
2024/01/24 00:42:33;;;;;;;;;;;;;;;;;;5095254;28;19930;-68
2024/01/24 00:44:59;;;;;;;;;;;;;;;;;;5095188;28;19920;-68
2024/01/24 00:47:25;;;;;;;;;;;;;;;;;;5093894;28;20364;-68
2024/01/24 00:49:51;;;;;;;;;;;;;;;;;;5095079;28;20352;-68
2024/01/24 00:52:17;;;;;;;;;;;;;;;;;;5095134;28;20285;-68
2024/01/24 00:54:43;;;;;;;;;;;;;;;;;;5094653;28;19948;-68
2024/01/24 00:57:09;;;;;;;;;;;;;;;;;;5094970;28;19915;-69
2024/01/24 00:59:35;;;;;;;;;;;;;;;;;;5094935;28;19908;-68
2024/01/24 01:02:00;;;;;;;;;;;;;;;;;;5094313;28;19915;-68
2024/01/24 01:04:26;;;;;;;;;;;;;;;;;;5095143;28;19969;-68
2024/01/24 01:06:52;;;;;;;;;;;;;;;;;;5094799;28;19912;-68
2024/01/24 01:09:18;;;;;;;;;;;;;;;;;;5094332;28;19915;-68
2024/01/24 01:11:44;;;;;;;;;;;;;;;;;;5094855;28;19912;-68
2024/01/24 01:14:10;;;;;;;;;;;;;;;;;;5094686;28;19908;-68
2024/01/24 01:16:36;;;;;;;;;;;;;;;;;;5094277;28;20265;-68
2024/01/24 01:19:02;;;;;;;;;;;;;;;;;;5094577;28;19920;-68
2024/01/24 01:21:28;;;;;;;;;;;;;;;;;;5094557;28;19946;-68
2024/01/24 01:23:54;;;;;;;;;;;;;;;;;;5094052;28;19916;-68
2024/01/24 01:26:20;;;;;;;;;;;;;;;;;;5094588;28;19912;-68
2024/01/24 01:28:46;;;;;;;;;;;;;;;;;;5094700;28;19915;-68
2024/01/24 01:31:12;;;;;;;;;;;;;;;;;;5093997;28;19908;-69
2024/01/24 01:33:38;;;;;;;;;;;;;;;;;;5094291;28;19908;-68
2024/01/24 01:36:04;;;;;;;;;;;;;;;;;;5094110;28;19927;-68
2024/01/24 01:38:30;;;;;;;;;;;;;;;;;;5094456;28;19908;-68
2024/01/24 01:40:55;;;;;;;;;;;;;;;;;;5094197;28;20002;-68
2024/01/24 01:43:21;;;;;;;;;;;;;;;;;;5093974;28;19924;-69
2024/01/24 01:45:47;;;;;;;;;;;;;;;;;;5094144;28;20283;-68
2024/01/24 01:48:13;;;;;;;;;;;;;;;;;;5094175;28;19912;-69
2024/01/24 01:50:39;;;;;;;;;;;;;;;;;;5093832;28;19909;-69
2024/01/24 01:53:05;;;;;;;;;;;;;;;;;;5094037;28;20356;-69
2024/01/24 01:55:31;;;;;;;;;;;;;;;;;;5094664;28;19908;-68
2024/01/24 01:57:57;;;;;;;;;;;;;;;;;;5093498;28;20360;-68
2024/01/24 02:00:23;;;;;;;;;;;;;;;;;;5094126;28;20371;-68
2024/01/24 02:02:49;;;;;;;;;;;;;;;;;;5093703;28;19924;-68
2024/01/24 02:05:16;;;;;;;;;;;;;;;;;;5093606;28;19923;-69
2024/01/24 02:07:42;;;;;;;;;;;;;;;;;;5094250;28;20394;-69
2024/01/24 02:10:08;;;;;;;;;;;;;;;;;;5094527;28;19908;-68
2024/01/24 02:12:35;;;;;;;;;;;;;;;;;;5093579;28;20000;-68
2024/01/24 02:15:01;;;;;;;;;;;;;;;;;;5094555;28;20315;-68
2024/01/24 02:17:27;;;;;;;;;;;;;;;;;;5093862;28;19954;-68
2024/01/24 02:19:53;;;;;;;;;;;;;;;;;;5093344;28;19944;-68
2024/01/24 02:22:19;;;;;;;;;;;;;;;;;;5093915;28;20003;-68
2024/01/24 02:24:45;;;;;;;;;;;;;;;;;;5093774;28;20429;-68
2024/01/24 02:27:11;;;;;;;;;;;;;;;;;;5093386;28;19930;-68
2024/01/24 02:29:37;;;;;;;;;;;;;;;;;;5093759;28;19953;-68
2024/01/24 02:32:03;;;;;;;;;;;;;;;;;;5093645;28;19908;-68
2024/01/24 02:34:29;;;;;;;;;;;;;;;;;;5093260;28;19944;-68
2024/01/24 02:36:55;;;;;;;;;;;;;;;;;;5093606;28;19915;-68
2024/01/24 02:39:21;;;;;;;;;;;;;;;;;;5093287;28;19908;-68
2024/01/24 02:41:47;;;;;;;;;;;;;;;;;;5092393;28;19954;-68
2024/01/24 02:44:13;;;;;;;;;;;;;;;;;;5093530;28;19921;-68
2024/01/24 02:46:39;;;;;;;;;;;;;;;;;;5093335;28;19912;-69
2024/01/24 02:49:05;;;;;;;;;;;;;;;;;;5093559;28;19931;-68
2024/01/24 02:51:31;;;;;;;;;;;;;;;;;;5093482;28;19912;-68
2024/01/24 02:53:57;;;;;;;;;;;;;;;;;;5093055;28;19922;-68
2024/01/24 02:56:23;;;;;;;;;;;;;;;;;;5093427;28;19927;-68
2024/01/24 02:58:49;;;;;;;;;;;;;;;;;;5093450;28;19912;-68
2024/01/24 03:01:15;;;;;;;;;;;;;;;;;;5093095;28;20386;-69
2024/01/24 03:03:41;;;;;;;;;;;;;;;;;;5093268;28;19920;-68
2024/01/24 03:06:08;;;;;;;;;;;;;;;;;;5093369;28;20003;-69
2024/01/24 03:08:34;;;;;;;;;;;;;;;;;;5093059;28;19915;-69
2024/01/24 03:10:59;;;;;;;;;;;;;;;;;;5095436;28;20010;-69
2024/01/24 03:13:25;;;;;;;;;;;;;;;;;;5097006;28;19908;-68
2024/01/24 03:15:51;;;;;;;;;;;;;;;;;;5096593;28;19961;-68
2024/01/24 03:18:18;;;;;;;;;;;;;;;;;;5096962;28;19908;-68
2024/01/24 03:20:44;;;;;;;;;;;;;;;;;;5096907;28;19993;-68
2024/01/24 03:23:12;;;;;;;;;;;;;;;;;;5096343;28;20411;-68
2024/01/24 03:25:38;;;;;;;;;;;;;;;;;;5096828;28;20322;-68
2024/01/24 03:28:04;;;;;;;;;;;;;;;;;;5096733;28;19908;-68
2024/01/24 03:30:30;;;;;;;;;;;;;;;;;;5096472;28;20383;-68
2024/01/24 03:32:55;;;;;;;;;;;;;;;;;;5096591;28;20001;-68
2024/01/24 03:35:21;;;;;;;;;;;;;;;;;;5096764;28;19921;-68
2024/01/24 03:37:47;;;;;;;;;;;;;;;;;;5096214;28;20474;-68
2024/01/24 03:40:13;;;;;;;;;;;;;;;;;;5096453;28;19908;-68
2024/01/24 03:42:39;;;;;;;;;;;;;;;;;;5096160;28;20356;-68
2024/01/24 03:45:05;;;;;;;;;;;;;;;;;;5096702;28;19908;-68
2024/01/24 03:47:31;;;;;;;;;;;;;;;;;;5096330;28;20257;-68
2024/01/24 03:49:57;;;;;;;;;;;;;;;;;;5095965;28;19951;-68
2024/01/24 03:52:23;;;;;;;;;;;;;;;;;;5096360;28;19931;-68
2024/01/24 03:54:49;;;;;;;;;;;;;;;;;;5096194;28;19953;-68
2024/01/24 03:57:15;;;;;;;;;;;;;;;;;;5095932;28;19915;-69
2024/01/24 03:59:41;;;;;;;;;;;;;;;;;;5096155;28;19909;-68
2024/01/24 04:02:07;;;;;;;;;;;;;;;;;;5095933;28;19908;-68
2024/01/24 04:04:33;;;;;;;;;;;;;;;;;;5095629;28;19920;-68
2024/01/24 04:06:59;;;;;;;;;;;;;;;;;;5096012;28;19912;-68
2024/01/24 04:09:25;;;;;;;;;;;;;;;;;;5095950;28;19908;-69
2024/01/24 04:11:51;;;;;;;;;;;;;;;;;;5095726;28;19915;-69
2024/01/24 04:14:17;;;;;;;;;;;;;;;;;;5095853;28;19908;-68
2024/01/24 04:16:43;;;;;;;;;;;;;;;;;;5095874;28;20322;-68
2024/01/24 04:19:09;;;;;;;;;;;;;;;;;;5095285;28;20322;-68
2024/01/24 04:21:35;;;;;;;;;;;;;;;;;;5095687;28;19931;-68
2024/01/24 04:24:01;;;;;;;;;;;;;;;;;;5095719;28;19916;-68
2024/01/24 04:26:27;;;;;;;;;;;;;;;;;;5095101;28;19915;-68
2024/01/24 04:28:53;;;;;;;;;;;;;;;;;;5095562;28;19912;-68
2024/01/24 04:31:19;;;;;;;;;;;;;;;;;;5095509;28;19908;-69
2024/01/24 04:33:45;;;;;;;;;;;;;;;;;;5095002;28;19908;-68
2024/01/24 04:36:11;;;;;;;;;;;;;;;;;;5095402;28;19909;-68
2024/01/24 04:38:36;;;;;;;;;;;;;;;;;;5095367;28;19962;-68
2024/01/24 04:41:02;;;;;;;;;;;;;;;;;;5094948;28;20384;-69
2024/01/24 04:43:28;;;;;;;;;;;;;;;;;;5095187;28;20272;-69
2024/01/24 04:45:54;;;;;;;;;;;;;;;;;;5094784;28;19977;-68
2024/01/24 04:48:21;;;;;;;;;;;;;;;;;;5095218;28;19908;-69
2024/01/24 04:50:47;;;;;;;;;;;;;;;;;;5095223;28;19908;-67
2024/01/24 04:53:13;;;;;;;;;;;;;;;;;;5095181;28;20364;-68
2024/01/24 04:55:39;;;;;;;;;;;;;;;;;;5095170;28;19915;-67
2024/01/24 04:58:05;;;;;;;;;;;;;;;;;;5095065;28;20404;-68
2024/01/24 05:00:31;;;;;;;;;;;;;;;;;;5094548;28;19908;-68
2024/01/24 05:02:57;;;;;;;;;;;;;;;;;;5094612;28;19965;-67
2024/01/24 05:05:23;;;;;;;;;;;;;;;;;;5094823;28;19915;-68
2024/01/24 05:07:49;;;;;;;;;;;;;;;;;;5094621;28;19909;-68
2024/01/24 05:10:16;;;;;;;;;;;;;;;;;;5094708;28;20288;-67
2024/01/24 05:12:42;;;;;;;;;;;;;;;;;;5094740;28;19915;-67
2024/01/24 05:15:08;;;;;;;;;;;;;;;;;;5094261;28;19908;-68
2024/01/24 05:17:34;;;;;;;;;;;;;;;;;;5094607;28;19996;-69
2024/01/24 05:20:00;;;;;;;;;;;;;;;;;;5094547;28;19943;-68
2024/01/24 05:22:26;;;;;;;;;;;;;;;;;;5094000;28;19908;-68
2024/01/24 05:24:52;;;;;;;;;;;;;;;;;;5094507;28;19908;-68
2024/01/24 05:27:18;;;;;;;;;;;;;;;;;;5094455;28;19998;-68
2024/01/24 05:29:47;;;;;;;;;;;;;;;;;;5094129;28;19915;-68
2024/01/24 05:32:13;;;;;;;;;;;;;;;;;;5094385;28;19908;-68
2024/01/24 05:34:39;;;;;;;;;;;;;;;;;;5094149;28;20337;-68
2024/01/24 05:37:05;;;;;;;;;;;;;;;;;;5094101;28;19908;-69
2024/01/24 05:39:31;;;;;;;;;;;;;;;;;;5094304;28;19915;-68
2024/01/24 05:41:57;;;;;;;;;;;;;;;;;;5093259;28;19908;-68
2024/01/24 05:44:23;;;;;;;;;;;;;;;;;;5092887;28;20425;-69
2024/01/24 05:46:49;;;;;;;;;;;;;;;;;;5092230;28;20368;-68
2024/01/24 05:49:15;;;;;;;;;;;;;;;;;;5091723;28;19943;-68
2024/01/24 05:51:42;;;;;;;;;;;;;;;;;;5092061;28;19953;-69
2024/01/24 05:54:08;;;;;;;;;;;;;;;;;;5092034;28;19915;-68
2024/01/24 05:56:35;;;;;;;;;;;;;;;;;;5091671;28;19950;-68
2024/01/24 05:59:01;;;;;;;;;;;;;;;;;;5092022;28;20316;-68
2024/01/24 06:01:27;;;;;;;;;;;;;;;;;;5093544;28;19915;-68
2024/01/24 06:03:53;;;;;;;;;;;;;;;;;;5092075;28;19973;-68
2024/01/24 06:06:19;;;;;;;;;;;;;;;;;;5094087;28;19908;-68
2024/01/24 06:08:45;;;;;;;;;;;;;;;;;;5093852;28;19995;-68
2024/01/24 06:11:14;;;;;;;;;;;;;;;;;;5093865;28;19940;-68
2024/01/24 06:13:40;;;;;;;;;;;;;;;;;;5093862;28;19908;-68
2024/01/24 06:16:06;;;;;;;;;;;;;;;;;;5093812;28;20425;-68
2024/01/24 06:18:32;;;;;;;;;;;;;;;;;;5100675;28;19912;-69
2024/01/24 06:20:58;;;;;;;;;;;;;;;;;;5108984;28;19912;-69
2024/01/24 06:23:24;;;;;;;;;;;;;;;;;;5113773;28;19999;-68
2024/01/24 06:25:50;;;;;;;;;;;;;;;;;;5113482;28;19914;-68
2024/01/24 06:28:16;;;;;;;;;;;;;;;;;;5113887;28;19953;-69
2024/01/24 06:30:41;;;;;;;;;;;;;;;;;;5113476;28;19908;-69
2024/01/24 06:33:07;;;;;;;;;;;;;;;;;;5113413;28;19915;-68
2024/01/24 06:35:33;;;;;;;;;;;;;;;;;;5096292;28;19955;-68
2024/01/24 06:38:00;;;;;;;;;;;;;;;;;;5092474;28;20388;-68
2024/01/24 06:40:27;;;;;;;;;;;;;;;;;;5107400;28;19923;-68
2024/01/24 06:42:53;;;;;;;;;;;;;;;;;;5083306;28;20383;-67
2024/01/24 06:45:19;;;;;;;;;;;;;;;;;;5078424;28;20276;-66
2024/01/24 06:47:45;;;;;;;;;;;;;;;;;;5077410;28;20017;-68
2024/01/24 06:50:13;;;;;;;;;;;;;;;;;;5095114;28;19995;-68
2024/01/24 06:52:39;;;;;;;;;;;;;;;;;;5095885;28;20292;-66
2024/01/24 06:55:05;;;;;;;;;;;;;;;;;;5096620;28;19973;-68
2024/01/24 06:57:31;;;;;;;;;;;;;;;;;;5097277;28;19908;-67
2024/01/24 06:59:57;;;;;;;;;;;;;;;;;;5100537;28;19919;-67
2024/01/24 07:02:23;;;;;;;;;;;;;;;;;;5115114;28;19962;-67
2024/01/24 07:04:51;;;;;;;;;;;;;;;;;;5116552;28;19918;-68
2024/01/24 07:07:16;;;;;;;;;;;;;;;;;;5101033;28;19912;-67
2024/01/24 07:09:42;;;;;;;;;;;;;;;;;;5096826;28;20503;-68
2024/01/24 07:12:09;;;;;;;;;;;;;;;;;;5096136;28;20306;-68
2024/01/24 07:14:35;;;;;;;;;;;;;;;;;;5114822;28;19908;-68
2024/01/24 07:17:00;;;;;;;;;;;;;;;;;;5088923;28;20273;-68
2024/01/24 07:19:26;;;;;;;;;;;;;;;;;;5102453;28;19913;-67
2024/01/24 07:21:52;;;;;;;;;;;;;;;;;;5097807;28;20408;-68
2024/01/24 07:24:18;;;;;;;;;;;;;;;;;;5106045;28;19930;-68
2024/01/24 07:26:44;;;;;;;;;;;;;;;;;;5096285;28;19912;-68
2024/01/24 07:29:10;;;;;;;;;;;;;;;;;;5101712;28;20446;-67
2024/01/24 07:31:37;;;;;;;;;;;;;;;;;;5094766;28;19916;-70
2024/01/24 07:34:03;;;;;;;;;;;;;;;;;;5096505;28;19919;-68
2024/01/24 07:36:29;;;;;;;;;;;;;;;;;;5104470;28;19912;-68
2024/01/24 07:38:55;;;;;;;;;;;;;;;;;;5106295;28;20424;-71
2024/01/24 07:41:23;;;;;;;;;;;;;;;;;;5114617;28;19916;-65
2024/01/24 07:43:49;;;;;;;;;;;;;;;;;;5115715;28;20375;-67
2024/01/24 07:46:15;;;;;;;;;;;;;;;;;;5102850;28;19965;-67
2024/01/24 07:48:41;;;;;;;;;;;;;;;;;;5107593;28;20008;-67
2024/01/24 07:51:07;;;;;;;;;;;;;;;;;;5095815;28;19935;-68
2024/01/24 07:53:33;;;;;;;;;;;;;;;;;;5106130;28;20359;-68
2024/01/24 07:55:59;;;;;;;;;;;;;;;;;;5097034;28;19926;-68
2024/01/24 07:58:26;;;;;;;;;;;;;;;;;;5100248;28;19912;-68
2024/01/24 08:00:54;;;;;;;;;;;;;;;;;;5092735;28;20415;-68
2024/01/24 08:03:20;;;;;;;;;;;;;;;;;;5082683;28;19975;-68
2024/01/24 08:05:46;;;;;;;;;;;;;;;;;;5101479;28;20400;-69
2024/01/24 08:08:12;;;;;;;;;;;;;;;;;;5105339;28;19922;-68
2024/01/24 08:10:38;;;;;;;;;;;;;;;;;;5114991;28;19907;-67
2024/01/24 08:13:06;;;;;;;;;;;;;;;;;;5108911;28;19908;-67
2024/01/24 08:15:32;;;;;;;;;;;;;;;;;;5107139;28;19992;-68
2024/01/24 08:17:58;;;;;;;;;;;;;;;;;;5097200;28;19967;-69
2024/01/24 08:20:25;;;;;;;;;;;;;;;;;;5108225;28;20412;-67
2024/01/24 08:22:51;;;;;;;;;;;;;;;;;;5098756;28;19931;-68
2024/01/24 08:25:17;;;;;;;;;;;;;;;;;;5081397;28;19919;-68
2024/01/24 08:27:43;;;;;;;;;;;;;;;;;;5080253;28;19920;-70
2024/01/24 08:30:09;;;;;;;;;;;;;;;;;;5113847;28;20011;-69
2024/01/24 08:32:40;;;;;;;;;;;;;;;;;;5084304;28;19912;-69
2024/01/24 08:35:06;;;;;;;;;;;;;;;;;;5080535;28;20328;-69
2024/01/24 08:37:32;;;;;;;;;;;;;;;;;;5092568;28;20012;-70
2024/01/24 08:39:58;;;;;;;;;;;;;;;;;;5095078;28;19908;-68
2024/01/24 08:42:23;;;;;;;;;;;;;;;;;;5100839;28;19965;-69
2024/01/24 08:44:49;;;;;;;;;;;;;;;;;;5091446;28;19916;-69
2024/01/24 08:47:16;;;;;;;;;;;;;;;;;;5105497;28;19920;-68
2024/01/24 08:49:42;;;;;;;;;;;;;;;;;;5094272;28;20545;-68
2024/01/24 08:52:08;;;;;;;;;;;;;;;;;;5111240;28;19926;-67
2024/01/24 08:54:33;;;;;;;;;;;;;;;;;;5091486;28;19912;-68
2024/01/24 08:56:59;;;;;;;;;;;;;;;;;;5081632;28;19912;-69
2024/01/24 08:59:25;;;;;;;;;;;;;;;;;;5091968;28;19918;-69
2024/01/24 09:01:55;;;;;;;;;;;;;;;;;;5109668;27;19951;-69
2024/01/24 09:04:21;;;;;;;;;;;;;;;;;;5110550;28;19919;-69
2024/01/24 09:06:47;;;;;;;;;;;;;;;;;;5096921;28;19961;-69
2024/01/24 09:09:15;;;;;;;;;;;;;;;;;;5103291;28;19929;-68
2024/01/24 09:11:41;;;;;;;;;;;;;;;;;;5092142;28;19912;-68
2024/01/24 09:14:07;;;;;;;;;;;;;;;;;;5095494;28;20372;-68
2024/01/24 09:16:33;;;;;;;;;;;;;;;;;;5088226;28;19908;-69
2024/01/24 09:18:59;;;;;;;;;;;;;;;;;;5087427;28;19942;-68
2024/01/24 09:21:25;;;;;;;;;;;;;;;;;;5087409;28;19912;-69
2024/01/24 09:23:51;;;;;;;;;;;;;;;;;;5096539;28;19920;-69
2024/01/24 09:26:17;;;;;;;;;;;;;;;;;;5100865;28;19912;-70
2024/01/24 09:28:43;;;;;;;;;;;;;;;;;;5088345;28;19921;-70
2024/01/24 09:31:09;;;;;;;;;;;;;;;;;;5094372;28;20014;-70
2024/01/24 09:33:35;;;;;;;;;;;;;;;;;;5107984;28;19919;-69
2024/01/24 09:36:01;;;;;;;;;;;;;;;;;;5101205;28;19916;-70
2024/01/24 09:38:27;;;;;;;;;;;;;;;;;;5087882;28;19999;-71
2024/01/24 09:40:54;;;;;;;;;;;;;;;;;;5090120;28;19966;-69
2024/01/24 09:43:21;;;;;;;;;;;;;;;;;;5087967;28;20358;-71
2024/01/24 09:45:49;;;;;;;;;;;;;;;;;;5092013;28;19917;-70
2024/01/24 09:48:16;;;;;;;;;;;;;;;;;;5091094;28;20003;-69
2024/01/24 09:50:42;;;;;;;;;;;;;;;;;;5090621;28;19916;-69
2024/01/24 09:53:09;;;;;;;;;;;;;;;;;;5092099;28;20433;-69
2024/01/24 09:55:35;;;;;;;;;;;;;;;;;;5103434;28;19940;-69
2024/01/24 09:58:02;;;;;;;;;;;;;;;;;;5090079;28;19995;-69
2024/01/24 10:00:28;;;;;;;;;;;;;;;;;;5088303;28;19908;-68
2024/01/24 10:02:54;;;;;;;;;;;;;;;;;;5090839;28;19931;-70
2024/01/24 10:05:20;;;;;;;;;;;;;;;;;;5103718;28;19916;-71
2024/01/24 10:07:46;;;;;;;;;;;;;;;;;;5090308;28;19951;-70
2024/01/24 10:10:12;;;;;;;;;;;;;;;;;;5089551;28;19919;-70
2024/01/24 10:12:38;;;;;;;;;;;;;;;;;;5087220;28;19920;-70
2024/01/24 10:15:04;;;;;;;;;;;;;;;;;;5087400;28;20288;-70
2024/01/24 10:17:30;;;;;;;;;;;;;;;;;;5088078;28;19916;-68
2024/01/24 10:19:56;;;;;;;;;;;;;;;;;;5091065;28;19951;-70
2024/01/24 10:22:22;;;;;;;;;;;;;;;;;;5101062;28;19966;-70
2024/01/24 10:24:48;;;;;;;;;;;;;;;;;;5094847;28;20372;-70
2024/01/24 10:27:14;;;;;;;;;;;;;;;;;;5104394;28;20337;-70
2024/01/24 10:29:40;;;;;;;;;;;;;;;;;;5095040;28;19952;-70
2024/01/24 10:32:08;;;;;;;;;;;;;;;;;;5094718;28;19960;-69
2024/01/24 10:34:34;;;;;;;;;;;;;;;;;;5106903;28;20422;-70
2024/01/24 10:37:00;;;;;;;;;;;;;;;;;;5091068;28;20014;-70
2024/01/24 10:39:26;;;;;;;;;;;;;;;;;;5090493;28;19915;-70
2024/01/24 10:41:52;;;;;;;;;;;;;;;;;;5096061;28;19923;-72
2024/01/24 10:44:19;;;;;;;;;;;;;;;;;;5101627;28;19924;-69
2024/01/24 10:46:45;;;;;;;;;;;;;;;;;;5106383;28;19957;-71
2024/01/24 10:49:15;;;;;;;;;;;;;;;;;;5091086;28;20396;-68
2024/01/24 10:51:43;;;;;;;;;;;;;;;;;;5099038;28;19927;-67
2024/01/24 10:54:09;;;;;;;;;;;;;;;;;;5101435;28;19916;-68
2024/01/24 10:56:35;;;;;;;;;;;;;;;;;;5090900;28;20486;-68
2024/01/24 10:59:00;;;;;;;;;;;;;;;;;;5108490;28;20542;-68
2024/01/24 11:01:26;;;;;;;;;;;;;;;;;;5109787;28;20368;-66
2024/01/24 11:03:53;;;;;;;;;;;;;;;;;;5075412;28;20354;-69
2024/01/24 11:06:20;;;;;;;;;;;;;;;;;;5086379;28;19916;-69
2024/01/24 11:08:48;;;;;;;;;;;;;;;;;;5074372;28;19917;-68
2024/01/24 11:11:14;;;;;;;;;;;;;;;;;;5070879;28;20139;-69
2024/01/24 11:13:40;;;;;;;;;;;;;;;;;;5074926;28;20372;-71
2024/01/24 11:16:06;;;;;;;;;;;;;;;;;;5071086;28;19908;-69
2024/01/24 11:18:32;;;;;;;;;;;;;;;;;;5072640;28;19913;-69
2024/01/24 11:20:58;;;;;;;;;;;;;;;;;;5069944;28;19913;-69
2024/01/24 11:23:24;;;;;;;;;;;;;;;;;;5076321;28;19970;-70
2024/01/24 11:25:50;;;;;;;;;;;;;;;;;;5072885;28;19919;-70
2024/01/24 11:28:16;;;;;;;;;;;;;;;;;;5053594;28;19913;-70
2024/01/24 11:30:42;;;;;;;;;;;;;;;;;;5073503;28;20016;-71
2024/01/24 11:33:09;;;;;;;;;;;;;;;;;;5071594;28;19935;-70
2024/01/24 11:35:35;;;;;;;;;;;;;;;;;;5073272;28;19962;-69
2024/01/24 11:38:01;;;;;;;;;;;;;;;;;;5078110;28;19918;-68
2024/01/24 11:40:27;;;;;;;;;;;;;;;;;;5074875;28;19935;-69
2024/01/24 11:42:53;;;;;;;;;;;;;;;;;;5073539;28;19924;-70
2024/01/24 11:45:20;;;;;;;;;;;;;;;;;;5086691;28;19916;-68
2024/01/24 11:47:46;;;;;;;;;;;;;;;;;;5089077;28;19992;-69
2024/01/24 11:50:12;;;;;;;;;;;;;;;;;;5074063;28;19917;-72
2024/01/24 11:52:38;;;;;;;;;;;;;;;;;;5063838;28;19965;-68
2024/01/24 11:55:04;;;;;;;;;;;;;;;;;;5038171;28;19915;-71
2024/01/24 11:57:30;;;;;;;;;;;;;;;;;;5068874;28;19916;-72
2024/01/24 11:59:56;;;;;;;;;;;;;;;;;;5054812;28;19920;-73
2024/01/24 12:02:23;;;;;;;;;;;;;;;;;;5077813;28;19912;-72
2024/01/24 12:04:49;;;;;;;;;;;;;;;;;;5094208;28;20004;-70
2024/01/24 12:07:15;;;;;;;;;;;;;;;;;;5092655;28;20446;-71
2024/01/24 12:09:41;;;;;;;;;;;;;;;;;;5094992;28;20380;-72
2024/01/24 12:12:07;;;;;;;;;;;;;;;;;;5092874;28;19912;-72
2024/01/24 12:14:33;;;;;;;;;;;;;;;;;;5101830;28;20268;-71
2024/01/24 12:17:00;;;;;;;;;;;;;;;;;;5093292;28;20010;-71
2024/01/24 12:19:26;;;;;;;;;;;;;;;;;;5094522;28;19919;-70
2024/01/24 12:21:52;;;;;;;;;;;;;;;;;;5092599;28;20006;-74
2024/01/24 12:24:18;;;;;;;;;;;;;;;;;;5090822;28;20352;-73
2024/01/24 12:26:44;;;;;;;;;;;;;;;;;;5089722;28;19909;-74
2024/01/24 12:31:31;;;;;;;;;;;;;;;;;;5086592;27;19921;-69
2024/01/24 12:33:57;;;;;;;;;;;;;;;;;;5082793;28;19935;-68
2024/01/24 12:36:23;;;;;;;;;;;;;;;;;;5066581;28;19913;-69
2024/01/24 12:38:50;;;;;;;;;;;;;;;;;;5075751;28;19981;-69
2024/01/24 12:41:16;;;;;;;;;;;;;;;;;;5064955;28;19962;-69
2024/01/24 12:43:42;;;;;;;;;;;;;;;;;;5064425;28;19919;-70
2024/01/24 12:46:08;;;;;;;;;;;;;;;;;;5066483;28;19912;-72
2024/01/24 12:48:35;;;;;;;;;;;;;;;;;;5083952;28;20372;-70
2024/01/24 12:52:25;;;;;;;;;;;;;;;;;;5088337;27;19927;-68
2024/01/24 12:54:51;;;;;;;;;;;;;;;;;;5089888;28;19912;-69
2024/01/24 12:57:17;;;;;;;;;;;;;;;;;;5085417;28;19912;-69
2024/01/24 12:59:43;;;;;;;;;;;;;;;;;;5087428;28;19920;-70
2024/01/24 13:02:35;;;;;;;;;;;;;;;;;;5090926;27;20390;-67
2024/01/24 13:05:01;;;;;;;;;;;;;;;;;;5090298;28;20003;-67
2024/01/24 13:08:35;;;;;;;;;;;;;;;;;;5090891;27;19916;-68
2024/01/24 13:11:01;;;;;;;;;;;;;;;;;;5090068;28;19994;-67
2024/01/24 13:13:27;;;;;;;;;;;;;;;;;;5088491;28;19939;-66
2024/01/24 13:18:26;;;;;;;;;;;;;;;;;;5121067;27;19920;-68
2024/01/24 13:20:52;;;;;;;;;;;;;;;;;;5132895;27;20002;-84
2024/01/24 13:23:29;;;;;;;;;;;;;;;;;;5111893;27;19930;-72
2024/01/24 13:32:07;;;;;;;;;;;;;;;;;;5090155;28;19916;-70
2024/01/24 13:34:33;;;;;;;;;;;;;;;;;;5089470;28;19923;-75
2024/01/24 13:36:58;;;;;;;;;;;;;;;;;;5090006;28;20438;-68
2024/01/24 13:39:25;;;;;;;;;;;;;;;;;;5088374;28;20008;-67
2024/01/24 13:41:51;;;;;;;;;;;;;;;;;;5088355;28;19912;-68
2024/01/24 13:44:17;;;;;;;;;;;;;;;;;;5088939;28;19916;-68
2024/01/24 13:46:43;;;;;;;;;;;;;;;;;;5088799;28;19912;-68
2024/01/24 13:49:09;;;;;;;;;;;;;;;;;;5087015;28;19916;-68
2024/01/24 13:54:15;;;;;;;;;;;;;;;;;;5122159;27;19946;-67
2024/01/24 13:58:29;;;;;;;;;;;;;;;;;;5090794;27;19927;-67
2024/01/24 14:01:54;;;;;;;;;;;;;;;;;;5126537;27;19920;-67
2024/01/24 14:04:39;;;;;;;;;;;;;;;;;;5111662;27;19924;-68
2024/01/24 14:07:05;;;;;;;;;;;;;;;;;;5111653;28;20015;-69
2024/01/24 14:09:31;;;;;;;;;;;;;;;;;;5111792;28;19961;-69
2024/01/24 14:13:48;;;;;;;;;;;;;;;;;;5091618;28;20303;-70
2024/01/24 14:18:28;;;;;;;;;;;;;;;;;;5091968;27;19916;-68
2024/01/24 14:20:54;;;;;;;;;;;;;;;;;;5084281;28;20408;-68
2024/01/24 14:23:20;;;;;;;;;;;;;;;;;;5090743;28;19988;-69
2024/01/24 14:27:07;;;;;;;;;;;;;;;;;;5091843;28;19916;-71
2024/01/24 14:29:33;;;;;;;;;;;;;;;;;;5091308;28;20015;-69
2024/01/24 14:31:59;;;;;;;;;;;;;;;;;;5089531;28;19916;-68
2024/01/24 14:34:25;;;;;;;;;;;;;;;;;;5091119;28;19954;-68
2024/01/24 14:37:02;;;;;;;;;;;;;;;;;;5152967;27;20359;-68
2024/01/24 14:39:28;;;;;;;;;;;;;;;;;;5153471;27;20275;-68
2024/01/24 14:41:53;;;;;;;;;;;;;;;;;;5152633;27;20030;-68
2024/01/24 14:44:19;;;;;;;;;;;;;;;;;;5152170;27;19911;-68
2024/01/24 14:48:59;;;;;;;;;;;;;;;;;;5091964;28;19916;-69
2024/01/24 14:51:25;;;;;;;;;;;;;;;;;;5089870;28;19919;-70
2024/01/24 14:55:25;;;;;;;;;;;;;;;;;;5091676;27;19936;-68
2024/01/24 14:57:51;;;;;;;;;;;;;;;;;;5091210;28;20015;-69
2024/01/24 15:02:38;;;;;;;;;;;;;;;;;;5111864;27;19912;-70
2024/01/24 15:05:04;;;;;;;;;;;;;;;;;;5111493;28;19955;-69
2024/01/24 15:07:30;;;;;;;;;;;;;;;;;;5110416;28;19908;-69
2024/01/24 15:09:56;;;;;;;;;;;;;;;;;;5111584;28;19994;-69
2024/01/24 15:12:22;;;;;;;;;;;;;;;;;;5111663;28;20376;-69
2024/01/24 15:14:48;;;;;;;;;;;;;;;;;;5111577;28;19908;-69
2024/01/24 15:17:14;;;;;;;;;;;;;;;;;;5111545;28;19915;-69
2024/01/24 15:19:45;;;;;;;;;;;;;;;;;;5111039;28;20382;-69
2024/01/24 15:22:11;;;;;;;;;;;;;;;;;;5110119;28;19927;-68
2024/01/24 15:24:37;;;;;;;;;;;;;;;;;;5111357;28;20275;-69
2024/01/24 15:27:03;;;;;;;;;;;;;;;;;;5110882;28;19969;-68
2024/01/24 15:29:29;;;;;;;;;;;;;;;;;;5111244;28;19909;-69
2024/01/24 15:31:55;;;;;;;;;;;;;;;;;;5111228;28;19920;-69
2024/01/24 15:34:21;;;;;;;;;;;;;;;;;;5110713;28;19961;-69
2024/01/24 15:36:47;;;;;;;;;;;;;;;;;;5111440;28;19908;-69
2024/01/24 15:39:14;;;;;;;;;;;;;;;;;;5109736;28;19908;-69
2024/01/24 15:41:41;;;;;;;;;;;;;;;;;;5110725;28;19916;-68
2024/01/24 15:44:06;;;;;;;;;;;;;;;;;;5110786;28;19908;-68
2024/01/24 15:46:33;;;;;;;;;;;;;;;;;;5110790;28;20352;-68
2024/01/24 15:48:58;;;;;;;;;;;;;;;;;;5110365;28;20037;-68
2024/01/24 15:51:24;;;;;;;;;;;;;;;;;;5111044;28;19999;-69
2024/01/24 15:53:50;;;;;;;;;;;;;;;;;;5110751;28;19915;-69
2024/01/24 15:56:16;;;;;;;;;;;;;;;;;;5110210;28;19908;-69
2024/01/24 15:58:42;;;;;;;;;;;;;;;;;;5109347;28;19954;-69
2024/01/24 16:01:08;;;;;;;;;;;;;;;;;;5110390;28;19969;-68
2024/01/24 16:03:36;;;;;;;;;;;;;;;;;;5110394;28;19981;-68
2024/01/24 16:06:02;;;;;;;;;;;;;;;;;;5110549;28;19908;-69
2024/01/24 16:08:28;;;;;;;;;;;;;;;;;;5109934;28;19916;-69
2024/01/24 16:10:54;;;;;;;;;;;;;;;;;;5110336;28;19908;-68
2024/01/24 16:13:21;;;;;;;;;;;;;;;;;;5099979;28;19915;-69
2024/01/24 16:15:47;;;;;;;;;;;;;;;;;;5096508;28;19908;-68
2024/01/24 16:18:13;;;;;;;;;;;;;;;;;;5096651;28;19916;-69
2024/01/24 16:20:39;;;;;;;;;;;;;;;;;;5096523;28;19973;-69
2024/01/24 16:23:05;;;;;;;;;;;;;;;;;;5096210;28;19919;-69
2024/01/24 16:25:31;;;;;;;;;;;;;;;;;;5096785;28;19959;-69
2024/01/24 16:27:57;;;;;;;;;;;;;;;;;;5096504;28;20004;-68
2024/01/24 16:30:24;;;;;;;;;;;;;;;;;;5095989;28;19908;-68
2024/01/24 16:32:52;;;;;;;;;;;;;;;;;;5096485;28;19915;-69
2024/01/24 16:35:19;;;;;;;;;;;;;;;;;;5096444;28;19915;-68
2024/01/24 16:37:44;;;;;;;;;;;;;;;;;;5095964;28;19908;-69
2024/01/24 16:40:10;;;;;;;;;;;;;;;;;;5096422;28;19915;-69
2024/01/24 16:42:36;;;;;;;;;;;;;;;;;;5096292;28;19912;-69
2024/01/24 16:45:03;;;;;;;;;;;;;;;;;;5095838;28;19912;-68
2024/01/24 16:47:29;;;;;;;;;;;;;;;;;;5094851;28;19908;-69
2024/01/24 16:49:55;;;;;;;;;;;;;;;;;;5094886;28;19919;-69
2024/01/24 16:52:22;;;;;;;;;;;;;;;;;;5098534;28;20299;-68
2024/01/24 16:54:48;;;;;;;;;;;;;;;;;;5095902;28;19995;-68
2024/01/24 16:57:14;;;;;;;;;;;;;;;;;;5094283;28;20007;-69
2024/01/24 16:59:40;;;;;;;;;;;;;;;;;;5093344;28;19908;-68
2024/01/24 17:02:06;;;;;;;;;;;;;;;;;;5092780;28;19920;-68
2024/01/24 17:04:33;;;;;;;;;;;;;;;;;;5092882;28;20383;-69
2024/01/24 17:06:59;;;;;;;;;;;;;;;;;;5092307;28;19914;-69
2024/01/24 17:09:25;;;;;;;;;;;;;;;;;;5092360;28;19908;-69